x

East Scotia Slope (44137) Wave Buoy

10:00am - Sat 25th Feb 2017 All times are EST. -5 hours from GMT.

  • Sig Wave height 3.3ft
  • Peak Period 11s
  • Wind
    9mph, 11mph gusts
  • Sea Temp 52°f
  • Air Temp 56°f
  • Sea Pressure 1019.4mb
  • East Scotia Slope
  • East Scotia Slope

More Historic Weather Station data

Upgrade to MSW Pro to gain access to the past 30 days of data for over 8000 Wavebouys and Weather Stations around the globe.

Join Pro

Comparision Forecast

View Surf forecast
   
Sat 02/25 10:00am 3.5ft 11s 9 11 mph 1019.4mb 52f 56f
9:00am 3.5ft 11s 7 9 mph 1019.8mb 51f 55f
8:00am 3.5ft 10s 9 11 mph 1019.8mb 51f 55f
7:00am 3.5ft 12s 9
mph
1019.8mb 51f 56f
6:00am 4ft 11s 7 9 mph 1019.3mb 51f 55f
5:00am 4ft 11s 7 9 mph 1019.3mb 51f 55f
4:00am 4.5ft 11s 9
mph
1018.9mb 51f 55f
3:00am 4.5ft 12s 9
mph
1018.9mb 51f 55f
2:00am 4.5ft 12s 11
mph
1018.8mb 51f 55f
1:00am 4.5ft 12s 9 11 mph 1019mb 52f 55f
12:00am 4.5ft 12s 13
mph
1019.2mb 52f 56f
Fri 02/24 11:00pm 4.5ft 11s 11 13 mph 1019mb 52f 56f
10:00pm 4.5ft 12s 11 13 mph 1019.3mb 52f 55f
9:00pm 4.5ft 6s 9 11 mph 1019.6mb 53f 55f
8:00pm 4.5ft 6s 11 13 mph 1020mb 55f 56f
7:00pm 5ft 6s 11 13 mph 1019.8mb 55f 56f
6:00pm 5ft 6s 9 11 mph 1019.8mb 55f 55f
5:00pm 5ft 12s 11 13 mph 1019.1mb 55f 56f
4:00pm 5ft 12s 13 16 mph 1018.5mb 55f 56f
3:00pm 5ft 6s 13 16 mph 1018.4mb 55f 56f
2:00pm 5ft 12s 16 18 mph 1018.3mb 55f 57f
1:00pm 5ft 12s 13 18 mph 1018.1mb 56f 57f
12:00pm 5ft 13s 13 18 mph 1018.2mb 55f 57f
11:00am 5ft 5s 16 18 mph 1018.5mb 55f 58f
10:00am 5ft 12s 18 20 mph 1018.5mb 55f 58f
9:00am 5.5ft 6s 16 20 mph 1018.4mb 55f 58f
8:00am 5.5ft 5s 18 20 mph 1018.1mb 55f 58f
7:00am 5.5ft 5s 20 22 mph 1017.5mb 55f 58f
6:00am 5.5ft 5s 18 22 mph 1017.1mb 56f 58f
5:00am 5.5ft 5s 20 25 mph 1017mb 56f 58f
4:00am 6ft 5s 18 22 mph 1016.7mb 55f 58f
3:00am 5.5ft 6s 20 25 mph 1016.4mb 55f 58f
2:00am 5.5ft 9s 20 25 mph 1016.7mb 56f 58f
1:00am 5.5ft 9s 22 27 mph 1016.6mb 56f 58f
12:00am 5ft 10s 20 25 mph 1017mb 56f 57f
Thu 02/23 11:00pm 5ft 10s 20 22 mph 1017.2mb 56f 57f
10:00pm 5ft 10s 20 25 mph 1017.1mb 56f 56f
9:00pm 5ft 10s 20 25 mph 1017mb 56f 56f
8:00pm 5ft 11s 18 22 mph 1017mb 56f 54f
7:00pm 5.5ft 10s 18 25 mph 1016.7mb 56f 53f
6:00pm 6ft 10s 18 20 mph 1016.6mb 55f 53f
5:00pm 5ft 10s 18 22 mph 1016mb 56f 51f
4:00pm 5ft 11s 18 22 mph 1015.7mb 56f 51f
3:00pm 5ft 9s 13 18 mph 1015.3mb 57f 50f
2:00pm 6ft 10s 16 20 mph 1015.2mb 58f 49f
1:00pm 6ft 10s 13 18 mph 1015.1mb 58f 47f
12:00pm 6ft 10s 13 16 mph 1015.3mb 58f 47f
11:00am 6ft 10s 11 18 mph 1015.8mb 58f 45f
10:00am 6.5ft 10s 7 11 mph 1015.7mb 58f 44f
9:00am 7ft 10s 7 11 mph 1015.7mb 59f 44f
8:00am 7ft 10s 9 13 mph 1015.3mb 59f 44f
7:00am 7ft 10s 11 18 mph 1015.2mb 59f 44f
6:00am 7ft 10s 13 18 mph 1014.4mb 58f 44f
5:00am 7ft 10s 18 22 mph 1013.8mb 58f 44f